EGMC/SEN METAR and TAF weather

Enter ICAO airport designator
Station Type Date Time Source
EGMC METAR 2018/12/11 14:20 UTC NOAA

EGMC 111420Z 14004KT 9999 FEW016 08/04 Q1024


Station Type Date Time Source
EGMC Decoded METAR 2018/12/11 14:20 UTC NOAA

Southend-On-Sea , United Kingdom (EGMC) 51-34N 000-42E
Dec 11, 2018 - 09:20 AM EST / 2018.12.11 1420 UTC
Wind: from the SE (140 degrees) at 5 MPH (4 KT):0
Visibility: greater than 7 mile(s):0
Sky conditions: mostly clear
Temperature: 46 F (8 C)
Dew Point: 39 F (4 C)
Relative Humidity: 75%
Pressure (altimeter): 30.24 in. Hg (1024 hPa)
ob: EGMC 111420Z 14004KT 9999 FEW016 08/04 Q1024
cycle: 14

Station Type Date Time Source
EGMC TAF 2016/04/18 18:00 UTC NOAA

TAF EGMC 181658Z 1818/1903 28008KT 9999 BKN045


Example: see airport list